sensor_id;sensor_type;location;lat;lon;timestamp;temperature;humidity
49765;DHT22;35657;51.204;-4.130;2023-06-26T00:00:41;18.50;99.90
49765;DHT22;35657;51.204;-4.130;2023-06-26T00:03:07;18.50;99.90
49765;DHT22;35657;51.204;-4.130;2023-06-26T00:05:33;18.50;99.90
49765;DHT22;35657;51.204;-4.130;2023-06-26T00:08:00;18.50;99.90
49765;DHT22;35657;51.204;-4.130;2023-06-26T00:10:27;18.50;99.90
49765;DHT22;35657;51.204;-4.130;2023-06-26T00:12:53;18.50;99.90
49765;DHT22;35657;51.204;-4.130;2023-06-26T00:15:19;18.50;99.90
49765;DHT22;35657;51.204;-4.130;2023-06-26T00:17:45;18.50;99.90
49765;DHT22;35657;51.204;-4.130;2023-06-26T00:20:11;18.50;99.90
49765;DHT22;35657;51.204;-4.130;2023-06-26T00:22:36;18.50;99.90
49765;DHT22;35657;51.204;-4.130;2023-06-26T00:25:06;18.50;99.90
49765;DHT22;35657;51.204;-4.130;2023-06-26T00:27:32;18.50;99.90
49765;DHT22;35657;51.204;-4.130;2023-06-26T00:29:58;18.50;99.90
49765;DHT22;35657;51.204;-4.130;2023-06-26T00:32:23;18.40;99.90
49765;DHT22;35657;51.204;-4.130;2023-06-26T00:34:49;18.50;99.90
49765;DHT22;35657;51.204;-4.130;2023-06-26T00:37:15;18.50;99.90
49765;DHT22;35657;51.204;-4.130;2023-06-26T00:39:40;18.40;99.90
49765;DHT22;35657;51.204;-4.130;2023-06-26T00:42:06;18.40;99.90
49765;DHT22;35657;51.204;-4.130;2023-06-26T00:44:32;18.40;99.90
49765;DHT22;35657;51.204;-4.130;2023-06-26T00:46:58;18.40;99.90
49765;DHT22;35657;51.204;-4.130;2023-06-26T00:49:25;18.40;99.90
49765;DHT22;35657;51.204;-4.130;2023-06-26T00:51:51;18.40;99.90
49765;DHT22;35657;51.204;-4.130;2023-06-26T00:54:17;18.40;99.90
49765;DHT22;35657;51.204;-4.130;2023-06-26T00:56:46;18.40;99.90
49765;DHT22;35657;51.204;-4.130;2023-06-26T00:59:13;18.30;99.90
49765;DHT22;35657;51.204;-4.130;2023-06-26T01:01:39;18.30;99.90
49765;DHT22;35657;51.204;-4.130;2023-06-26T01:04:05;18.40;99.90
49765;DHT22;35657;51.204;-4.130;2023-06-26T01:06:32;18.30;99.90
49765;DHT22;35657;51.204;-4.130;2023-06-26T01:09:02;18.30;99.90
49765;DHT22;35657;51.204;-4.130;2023-06-26T01:11:28;18.30;99.90
49765;DHT22;35657;51.204;-4.130;2023-06-26T01:13:54;18.30;99.90
49765;DHT22;35657;51.204;-4.130;2023-06-26T01:16:23;18.20;99.90
49765;DHT22;35657;51.204;-4.130;2023-06-26T01:18:50;18.20;99.90
49765;DHT22;35657;51.204;-4.130;2023-06-26T01:21:17;18.20;99.90
49765;DHT22;35657;51.204;-4.130;2023-06-26T01:24:07;18.20;99.90
49765;DHT22;35657;51.204;-4.130;2023-06-26T01:26:36;18.20;99.90
49765;DHT22;35657;51.204;-4.130;2023-06-26T01:29:06;18.20;99.90
49765;DHT22;35657;51.204;-4.130;2023-06-26T01:31:32;18.20;99.90
49765;DHT22;35657;51.204;-4.130;2023-06-26T01:33:59;18.20;99.90
49765;DHT22;35657;51.204;-4.130;2023-06-26T01:36:26;18.20;99.90
49765;DHT22;35657;51.204;-4.130;2023-06-26T01:38:52;18.20;99.90
49765;DHT22;35657;51.204;-4.130;2023-06-26T01:41:19;18.10;99.90
49765;DHT22;35657;51.204;-4.130;2023-06-26T01:51:27;18.10;99.90
49765;DHT22;35657;51.204;-4.130;2023-06-26T01:53:56;18.10;99.90
49765;DHT22;35657;51.204;-4.130;2023-06-26T01:56:24;18.10;99.90
49765;DHT22;35657;51.204;-4.130;2023-06-26T01:58:50;18.10;99.90
49765;DHT22;35657;51.204;-4.130;2023-06-26T02:01:20;18.10;99.90
49765;DHT22;35657;51.204;-4.130;2023-06-26T02:03:46;18.10;99.90
49765;DHT22;35657;51.204;-4.130;2023-06-26T02:06:12;18.10;99.90
49765;DHT22;35657;51.204;-4.130;2023-06-26T02:08:38;18.10;99.90
49765;DHT22;35657;51.204;-4.130;2023-06-26T02:11:03;18.10;99.90
49765;DHT22;35657;51.204;-4.130;2023-06-26T02:13:29;18.00;99.90
49765;DHT22;35657;51.204;-4.130;2023-06-26T02:15:55;18.00;99.90
49765;DHT22;35657;51.204;-4.130;2023-06-26T02:18:20;18.00;99.90
49765;DHT22;35657;51.204;-4.130;2023-06-26T02:20:48;17.90;99.90
49765;DHT22;35657;51.204;-4.130;2023-06-26T02:23:14;17.90;99.90
49765;DHT22;35657;51.204;-4.130;2023-06-26T02:25:39;18.00;99.90
49765;DHT22;35657;51.204;-4.130;2023-06-26T02:28:05;17.90;99.90
49765;DHT22;35657;51.204;-4.130;2023-06-26T02:30:31;17.90;99.90
49765;DHT22;35657;51.204;-4.130;2023-06-26T02:32:56;17.90;99.90
49765;DHT22;35657;51.204;-4.130;2023-06-26T02:35:22;17.90;99.90
49765;DHT22;35657;51.204;-4.130;2023-06-26T02:37:48;17.90;99.90
49765;DHT22;35657;51.204;-4.130;2023-06-26T02:40:13;17.90;99.90
49765;DHT22;35657;51.204;-4.130;2023-06-26T02:42:39;17.90;99.90
49765;DHT22;35657;51.204;-4.130;2023-06-26T02:45:05;18.00;99.90
49765;DHT22;35657;51.204;-4.130;2023-06-26T02:47:31;17.90;99.90
49765;DHT22;35657;51.204;-4.130;2023-06-26T02:49:57;17.80;99.90
49765;DHT22;35657;51.204;-4.130;2023-06-26T02:52:22;17.90;99.90
49765;DHT22;35657;51.204;-4.130;2023-06-26T02:54:48;17.80;99.90
49765;DHT22;35657;51.204;-4.130;2023-06-26T02:57:14;17.80;99.90
49765;DHT22;35657;51.204;-4.130;2023-06-26T02:59:40;17.90;99.90
49765;DHT22;35657;51.204;-4.130;2023-06-26T03:02:06;17.80;99.90
49765;DHT22;35657;51.204;-4.130;2023-06-26T03:04:31;17.80;99.90
49765;DHT22;35657;51.204;-4.130;2023-06-26T03:06:58;17.70;99.90
49765;DHT22;35657;51.204;-4.130;2023-06-26T03:09:24;17.80;99.90
49765;DHT22;35657;51.204;-4.130;2023-06-26T03:11:50;17.80;99.90
49765;DHT22;35657;51.204;-4.130;2023-06-26T03:14:16;17.70;99.90
49765;DHT22;35657;51.204;-4.130;2023-06-26T03:16:42;17.70;99.90
49765;DHT22;35657;51.204;-4.130;2023-06-26T03:19:07;17.70;99.90
49765;DHT22;35657;51.204;-4.130;2023-06-26T03:21:33;17.70;99.90
49765;DHT22;35657;51.204;-4.130;2023-06-26T03:23:59;17.70;99.90
49765;DHT22;35657;51.204;-4.130;2023-06-26T03:26:25;17.70;99.90
49765;DHT22;35657;51.204;-4.130;2023-06-26T03:28:53;17.70;99.90
49765;DHT22;35657;51.204;-4.130;2023-06-26T03:31:19;17.70;99.90
49765;DHT22;35657;51.204;-4.130;2023-06-26T03:33:46;17.70;99.90
49765;DHT22;35657;51.204;-4.130;2023-06-26T03:36:11;17.70;99.90
49765;DHT22;35657;51.204;-4.130;2023-06-26T03:38:37;17.60;99.90
49765;DHT22;35657;51.204;-4.130;2023-06-26T03:41:03;17.70;99.90
49765;DHT22;35657;51.204;-4.130;2023-06-26T03:43:29;17.70;99.90
49765;DHT22;35657;51.204;-4.130;2023-06-26T03:45:54;17.70;99.90
49765;DHT22;35657;51.204;-4.130;2023-06-26T03:48:20;17.70;99.90
49765;DHT22;35657;51.204;-4.130;2023-06-26T03:50:46;17.60;99.90
49765;DHT22;35657;51.204;-4.130;2023-06-26T03:53:11;17.70;99.90
49765;DHT22;35657;51.204;-4.130;2023-06-26T03:55:37;17.60;99.90
49765;DHT22;35657;51.204;-4.130;2023-06-26T03:58:04;17.60;99.90
49765;DHT22;35657;51.204;-4.130;2023-06-26T04:00:30;17.40;99.90
49765;DHT22;35657;51.204;-4.130;2023-06-26T04:02:56;17.40;99.90
49765;DHT22;35657;51.204;-4.130;2023-06-26T04:05:23;17.40;99.90
49765;DHT22;35657;51.204;-4.130;2023-06-26T04:07:52;17.50;99.90
49765;DHT22;35657;51.204;-4.130;2023-06-26T04:10:18;17.50;99.90
49765;DHT22;35657;51.204;-4.130;2023-06-26T04:12:46;17.50;99.90
49765;DHT22;35657;51.204;-4.130;2023-06-26T04:15:11;17.50;99.90
49765;DHT22;35657;51.204;-4.130;2023-06-26T04:17:37;17.50;99.90
49765;DHT22;35657;51.204;-4.130;2023-06-26T04:20:03;17.40;99.90
49765;DHT22;35657;51.204;-4.130;2023-06-26T04:22:33;17.50;99.90
49765;DHT22;35657;51.204;-4.130;2023-06-26T04:25:01;17.50;99.90
49765;DHT22;35657;51.204;-4.130;2023-06-26T04:27:27;17.50;99.90
49765;DHT22;35657;51.204;-4.130;2023-06-26T04:29:52;17.60;99.90
49765;DHT22;35657;51.204;-4.130;2023-06-26T04:32:18;17.60;99.90
49765;DHT22;35657;51.204;-4.130;2023-06-26T04:34:44;17.60;99.90
49765;DHT22;35657;51.204;-4.130;2023-06-26T04:37:10;17.60;99.90
49765;DHT22;35657;51.204;-4.130;2023-06-26T04:39:38;17.70;99.90
49765;DHT22;35657;51.204;-4.130;2023-06-26T04:42:05;17.70;99.90
49765;DHT22;35657;51.204;-4.130;2023-06-26T04:44:32;17.70;99.90
49765;DHT22;35657;51.204;-4.130;2023-06-26T04:46:57;17.70;99.90
49765;DHT22;35657;51.204;-4.130;2023-06-26T04:49:23;17.80;99.90
49765;DHT22;35657;51.204;-4.130;2023-06-26T04:51:49;17.70;99.90
49765;DHT22;35657;51.204;-4.130;2023-06-26T04:54:16;17.80;99.90
49765;DHT22;35657;51.204;-4.130;2023-06-26T04:56:42;17.80;99.90
49765;DHT22;35657;51.204;-4.130;2023-06-26T04:59:09;17.90;99.90
49765;DHT22;35657;51.204;-4.130;2023-06-26T05:01:39;17.80;99.90
49765;DHT22;35657;51.204;-4.130;2023-06-26T05:04:05;17.90;99.90
49765;DHT22;35657;51.204;-4.130;2023-06-26T05:06:31;18.00;99.90
49765;DHT22;35657;51.204;-4.130;2023-06-26T05:08:57;18.00;99.90
49765;DHT22;35657;51.204;-4.130;2023-06-26T05:11:22;17.90;99.90
49765;DHT22;35657;51.204;-4.130;2023-06-26T05:13:49;18.00;99.90
49765;DHT22;35657;51.204;-4.130;2023-06-26T05:16:15;18.00;99.90
49765;DHT22;35657;51.204;-4.130;2023-06-26T05:18:40;18.00;99.90
49765;DHT22;35657;51.204;-4.130;2023-06-26T05:21:07;18.00;99.90
49765;DHT22;35657;51.204;-4.130;2023-06-26T05:23:33;18.00;99.90
49765;DHT22;35657;51.204;-4.130;2023-06-26T05:26:01;18.00;99.90
49765;DHT22;35657;51.204;-4.130;2023-06-26T05:28:29;18.00;99.90
49765;DHT22;35657;51.204;-4.130;2023-06-26T05:30:57;18.00;99.90
49765;DHT22;35657;51.204;-4.130;2023-06-26T05:33:24;18.00;99.90
49765;DHT22;35657;51.204;-4.130;2023-06-26T05:35:52;18.00;99.90
49765;DHT22;35657;51.204;-4.130;2023-06-26T05:38:18;17.90;99.90
49765;DHT22;35657;51.204;-4.130;2023-06-26T05:40:44;17.90;99.90
49765;DHT22;35657;51.204;-4.130;2023-06-26T05:43:10;18.00;99.90
49765;DHT22;35657;51.204;-4.130;2023-06-26T05:45:36;18.00;99.90
49765;DHT22;35657;51.204;-4.130;2023-06-26T05:48:02;18.00;99.90
49765;DHT22;35657;51.204;-4.130;2023-06-26T05:50:28;18.00;99.90
49765;DHT22;35657;51.204;-4.130;2023-06-26T05:52:54;18.00;99.90
49765;DHT22;35657;51.204;-4.130;2023-06-26T05:55:21;18.00;99.90
49765;DHT22;35657;51.204;-4.130;2023-06-26T05:57:47;18.00;99.90
49765;DHT22;35657;51.204;-4.130;2023-06-26T06:00:13;18.00;99.90
49765;DHT22;35657;51.204;-4.130;2023-06-26T06:02:42;18.10;99.90
49765;DHT22;35657;51.204;-4.130;2023-06-26T06:05:08;18.10;99.90
49765;DHT22;35657;51.204;-4.130;2023-06-26T06:07:34;18.20;99.90
49765;DHT22;35657;51.204;-4.130;2023-06-26T06:10:01;18.30;99.90
49765;DHT22;35657;51.204;-4.130;2023-06-26T06:12:27;18.30;99.90
49765;DHT22;35657;51.204;-4.130;2023-06-26T06:14:53;18.30;99.90
49765;DHT22;35657;51.204;-4.130;2023-06-26T06:17:22;18.30;99.90
49765;DHT22;35657;51.204;-4.130;2023-06-26T06:19:48;18.40;99.90
49765;DHT22;35657;51.204;-4.130;2023-06-26T06:22:14;18.40;99.90
49765;DHT22;35657;51.204;-4.130;2023-06-26T06:24:40;18.40;99.90
49765;DHT22;35657;51.204;-4.130;2023-06-26T06:27:05;18.40;99.90
49765;DHT22;35657;51.204;-4.130;2023-06-26T06:29:31;18.30;99.90
49765;DHT22;35657;51.204;-4.130;2023-06-26T06:31:57;18.30;99.90
49765;DHT22;35657;51.204;-4.130;2023-06-26T06:34:23;18.30;99.90
49765;DHT22;35657;51.204;-4.130;2023-06-26T06:36:49;18.20;99.90
49765;DHT22;35657;51.204;-4.130;2023-06-26T06:39:15;18.20;99.90
49765;DHT22;35657;51.204;-4.130;2023-06-26T06:41:41;18.30;99.90
49765;DHT22;35657;51.204;-4.130;2023-06-26T06:44:07;18.30;99.90
49765;DHT22;35657;51.204;-4.130;2023-06-26T06:46:33;18.30;99.90
49765;DHT22;35657;51.204;-4.130;2023-06-26T06:48:58;18.30;99.90
49765;DHT22;35657;51.204;-4.130;2023-06-26T06:51:25;18.30;99.90
49765;DHT22;35657;51.204;-4.130;2023-06-26T06:53:51;18.30;99.90
49765;DHT22;35657;51.204;-4.130;2023-06-26T06:56:17;18.40;99.90
49765;DHT22;35657;51.204;-4.130;2023-06-26T06:58:43;18.30;99.90
49765;DHT22;35657;51.204;-4.130;2023-06-26T07:01:12;18.30;99.90
49765;DHT22;35657;51.204;-4.130;2023-06-26T07:03:39;18.30;99.90
49765;DHT22;35657;51.204;-4.130;2023-06-26T07:06:04;18.30;99.90
49765;DHT22;35657;51.204;-4.130;2023-06-26T07:08:30;18.30;99.90
49765;DHT22;35657;51.204;-4.130;2023-06-26T07:10:56;18.40;99.90
49765;DHT22;35657;51.204;-4.130;2023-06-26T07:13:22;18.30;99.90
49765;DHT22;35657;51.204;-4.130;2023-06-26T07:15:48;18.30;99.90
49765;DHT22;35657;51.204;-4.130;2023-06-26T07:18:14;18.40;99.90
49765;DHT22;35657;51.204;-4.130;2023-06-26T07:20:40;18.60;99.90
49765;DHT22;35657;51.204;-4.130;2023-06-26T07:23:06;18.50;99.90
49765;DHT22;35657;51.204;-4.130;2023-06-26T07:25:31;18.50;99.90
49765;DHT22;35657;51.204;-4.130;2023-06-26T07:27:57;18.70;99.90
49765;DHT22;35657;51.204;-4.130;2023-06-26T07:30:23;18.70;99.90
49765;DHT22;35657;51.204;-4.130;2023-06-26T07:32:50;18.70;99.90
49765;DHT22;35657;51.204;-4.130;2023-06-26T07:35:15;18.50;99.90
49765;DHT22;35657;51.204;-4.130;2023-06-26T07:37:41;18.40;99.90
49765;DHT22;35657;51.204;-4.130;2023-06-26T07:40:08;18.50;99.90
49765;DHT22;35657;51.204;-4.130;2023-06-26T07:42:34;18.60;99.90
49765;DHT22;35657;51.204;-4.130;2023-06-26T07:45:00;18.60;99.90
49765;DHT22;35657;51.204;-4.130;2023-06-26T07:47:25;18.60;99.90
49765;DHT22;35657;51.204;-4.130;2023-06-26T07:49:51;18.70;99.90
49765;DHT22;35657;51.204;-4.130;2023-06-26T07:52:18;18.80;99.90
49765;DHT22;35657;51.204;-4.130;2023-06-26T07:54:44;18.80;99.90
49765;DHT22;35657;51.204;-4.130;2023-06-26T07:57:10;18.90;99.90
49765;DHT22;35657;51.204;-4.130;2023-06-26T07:59:37;18.90;99.90
49765;DHT22;35657;51.204;-4.130;2023-06-26T08:02:03;19.00;99.90
49765;DHT22;35657;51.204;-4.130;2023-06-26T08:04:29;19.10;99.90
49765;DHT22;35657;51.204;-4.130;2023-06-26T08:06:58;19.10;99.90
49765;DHT22;35657;51.204;-4.130;2023-06-26T08:09:27;19.20;99.90
49765;DHT22;35657;51.204;-4.130;2023-06-26T08:11:53;19.20;99.90
49765;DHT22;35657;51.204;-4.130;2023-06-26T08:14:18;19.30;99.90
49765;DHT22;35657;51.204;-4.130;2023-06-26T08:16:45;19.40;99.90
49765;DHT22;35657;51.204;-4.130;2023-06-26T08:19:12;19.60;99.90
49765;DHT22;35657;51.204;-4.130;2023-06-26T08:21:39;19.70;99.90
49765;DHT22;35657;51.204;-4.130;2023-06-26T08:24:05;19.90;99.90
49765;DHT22;35657;51.204;-4.130;2023-06-26T08:26:31;20.10;99.90
49765;DHT22;35657;51.204;-4.130;2023-06-26T08:28:56;20.10;99.90
49765;DHT22;35657;51.204;-4.130;2023-06-26T08:31:22;20.00;99.90
49765;DHT22;35657;51.204;-4.130;2023-06-26T08:33:48;20.20;99.90
49765;DHT22;35657;51.204;-4.130;2023-06-26T08:36:14;20.20;99.90
49765;DHT22;35657;51.204;-4.130;2023-06-26T08:38:40;20.30;99.90
49765;DHT22;35657;51.204;-4.130;2023-06-26T08:41:09;20.30;99.90
49765;DHT22;35657;51.204;-4.130;2023-06-26T08:43:35;20.30;99.90
49765;DHT22;35657;51.204;-4.130;2023-06-26T08:46:02;20.20;99.90
49765;DHT22;35657;51.204;-4.130;2023-06-26T08:48:32;20.00;99.90
49765;DHT22;35657;51.204;-4.130;2023-06-26T08:51:03;20.10;99.90
49765;DHT22;35657;51.204;-4.130;2023-06-26T08:53:42;20.40;99.90
49765;DHT22;35657;51.204;-4.130;2023-06-26T08:56:08;20.30;99.90
49765;DHT22;35657;51.204;-4.130;2023-06-26T08:58:36;20.50;99.90
49765;DHT22;35657;51.204;-4.130;2023-06-26T09:01:04;20.80;99.90
49765;DHT22;35657;51.204;-4.130;2023-06-26T09:03:31;20.90;99.90
49765;DHT22;35657;51.204;-4.130;2023-06-26T09:05:57;20.90;99.90
49765;DHT22;35657;51.204;-4.130;2023-06-26T09:08:23;21.10;99.90
49765;DHT22;35657;51.204;-4.130;2023-06-26T09:10:48;21.00;99.90
49765;DHT22;35657;51.204;-4.130;2023-06-26T09:13:14;21.20;99.90
49765;DHT22;35657;51.204;-4.130;2023-06-26T09:15:44;21.20;99.90
49765;DHT22;35657;51.204;-4.130;2023-06-26T09:18:09;21.20;99.90
49765;DHT22;35657;51.204;-4.130;2023-06-26T09:20:36;21.50;99.90
49765;DHT22;35657;51.204;-4.130;2023-06-26T09:23:02;21.50;99.90
49765;DHT22;35657;51.204;-4.130;2023-06-26T09:25:28;21.70;99.90
49765;DHT22;35657;51.204;-4.130;2023-06-26T09:27:55;21.80;99.90
49765;DHT22;35657;51.204;-4.130;2023-06-26T09:30:20;22.00;99.90
49765;DHT22;35657;51.204;-4.130;2023-06-26T09:32:46;22.20;99.90
49765;DHT22;35657;51.204;-4.130;2023-06-26T09:35:12;22.00;99.90
49765;DHT22;35657;51.204;-4.130;2023-06-26T09:37:38;22.30;99.90
49765;DHT22;35657;51.204;-4.130;2023-06-26T09:40:05;22.20;99.90
49765;DHT22;35657;51.204;-4.130;2023-06-26T09:42:31;22.40;99.90
49765;DHT22;35657;51.204;-4.130;2023-06-26T09:44:56;22.60;99.90
49765;DHT22;35657;51.204;-4.130;2023-06-26T09:47:23;22.70;99.90
49765;DHT22;35657;51.204;-4.130;2023-06-26T09:49:49;22.80;99.90
49765;DHT22;35657;51.204;-4.130;2023-06-26T09:52:16;22.60;99.90
49765;DHT22;35657;51.204;-4.130;2023-06-26T09:54:45;22.40;99.90
49765;DHT22;35657;51.204;-4.130;2023-06-26T09:57:13;22.30;99.90
49765;DHT22;35657;51.204;-4.130;2023-06-26T09:59:40;22.60;99.90
49765;DHT22;35657;51.204;-4.130;2023-06-26T10:02:06;22.50;99.90
49765;DHT22;35657;51.204;-4.130;2023-06-26T10:04:33;22.60;99.90
49765;DHT22;35657;51.204;-4.130;2023-06-26T10:07:01;22.70;99.90
49765;DHT22;35657;51.204;-4.130;2023-06-26T10:09:29;23.10;99.90
49765;DHT22;35657;51.204;-4.130;2023-06-26T10:12:05;23.40;99.90
49765;DHT22;35657;51.204;-4.130;2023-06-26T10:14:34;23.20;99.90
49765;DHT22;35657;51.204;-4.130;2023-06-26T10:17:03;23.40;99.90
49765;DHT22;35657;51.204;-4.130;2023-06-26T10:19:30;23.60;99.90
49765;DHT22;35657;51.204;-4.130;2023-06-26T10:21:58;23.70;99.90
49765;DHT22;35657;51.204;-4.130;2023-06-26T10:24:26;23.90;99.90
49765;DHT22;35657;51.204;-4.130;2023-06-26T10:26:59;23.70;99.90
49765;DHT22;35657;51.204;-4.130;2023-06-26T10:29:27;23.50;99.90
49765;DHT22;35657;51.204;-4.130;2023-06-26T10:31:56;23.80;99.90
49765;DHT22;35657;51.204;-4.130;2023-06-26T10:34:24;23.50;99.90
49765;DHT22;35657;51.204;-4.130;2023-06-26T10:37:11;23.50;99.90
49765;DHT22;35657;51.204;-4.130;2023-06-26T10:39:51;23.80;99.90
49765;DHT22;35657;51.204;-4.130;2023-06-26T10:42:19;23.70;99.90
49765;DHT22;35657;51.204;-4.130;2023-06-26T10:44:47;23.90;99.90
49765;DHT22;35657;51.204;-4.130;2023-06-26T10:47:45;24.10;99.90
49765;DHT22;35657;51.204;-4.130;2023-06-26T10:50:24;23.90;99.90
49765;DHT22;35657;51.204;-4.130;2023-06-26T10:53:21;23.50;99.90
49765;DHT22;35657;51.204;-4.130;2023-06-26T10:56:00;23.60;99.90
49765;DHT22;35657;51.204;-4.130;2023-06-26T11:01:22;23.60;99.90
49765;DHT22;35657;51.204;-4.130;2023-06-26T11:06:19;23.60;99.90
49765;DHT22;35657;51.204;-4.130;2023-06-26T11:09:14;23.50;99.90
49765;DHT22;35657;51.204;-4.130;2023-06-26T11:14:19;23.40;99.90
49765;DHT22;35657;51.204;-4.130;2023-06-26T11:16:45;23.40;99.90
49765;DHT22;35657;51.204;-4.130;2023-06-26T11:19:12;23.30;99.90
49765;DHT22;35657;51.204;-4.130;2023-06-26T11:21:38;23.00;99.90
49765;DHT22;35657;51.204;-4.130;2023-06-26T11:24:08;22.80;99.90
49765;DHT22;35657;51.204;-4.130;2023-06-26T11:26:44;23.10;99.90
49765;DHT22;35657;51.204;-4.130;2023-06-26T11:29:11;23.40;99.90
49765;DHT22;35657;51.204;-4.130;2023-06-26T11:31:41;23.50;99.90
49765;DHT22;35657;51.204;-4.130;2023-06-26T11:34:09;23.40;99.90
49765;DHT22;35657;51.204;-4.130;2023-06-26T11:36:39;23.50;99.90
49765;DHT22;35657;51.204;-4.130;2023-06-26T11:39:07;23.60;99.90
49765;DHT22;35657;51.204;-4.130;2023-06-26T11:41:38;23.80;99.90
49765;DHT22;35657;51.204;-4.130;2023-06-26T11:44:05;23.60;99.90
49765;DHT22;35657;51.204;-4.130;2023-06-26T11:46:33;23.80;99.90
49765;DHT22;35657;51.204;-4.130;2023-06-26T11:48:59;23.50;99.90
49765;DHT22;35657;51.204;-4.130;2023-06-26T11:51:28;23.90;99.90
49765;DHT22;35657;51.204;-4.130;2023-06-26T11:53:54;23.80;99.90
49765;DHT22;35657;51.204;-4.130;2023-06-26T11:56:20;23.60;99.90
49765;DHT22;35657;51.204;-4.130;2023-06-26T12:01:57;23.60;99.90
49765;DHT22;35657;51.204;-4.130;2023-06-26T12:04:23;23.70;99.90
49765;DHT22;35657;51.204;-4.130;2023-06-26T12:06:52;24.00;99.90
49765;DHT22;35657;51.204;-4.130;2023-06-26T12:09:22;23.60;99.90
49765;DHT22;35657;51.204;-4.130;2023-06-26T12:11:50;24.10;99.90
49765;DHT22;35657;51.204;-4.130;2023-06-26T12:14:17;24.40;99.90
49765;DHT22;35657;51.204;-4.130;2023-06-26T12:16:44;24.30;99.90
49765;DHT22;35657;51.204;-4.130;2023-06-26T12:19:10;24.40;99.90
49765;DHT22;35657;51.204;-4.130;2023-06-26T12:24:02;24.10;99.90
49765;DHT22;35657;51.204;-4.130;2023-06-26T12:26:28;24.40;99.90
49765;DHT22;35657;51.204;-4.130;2023-06-26T12:29:05;24.70;99.90
49765;DHT22;35657;51.204;-4.130;2023-06-26T12:31:31;24.20;99.90
49765;DHT22;35657;51.204;-4.130;2023-06-26T12:33:57;24.30;99.90
49765;DHT22;35657;51.204;-4.130;2023-06-26T12:36:23;24.20;99.90
49765;DHT22;35657;51.204;-4.130;2023-06-26T12:38:49;24.50;99.90
49765;DHT22;35657;51.204;-4.130;2023-06-26T12:41:15;24.50;99.90
49765;DHT22;35657;51.204;-4.130;2023-06-26T12:43:42;24.50;99.90
49765;DHT22;35657;51.204;-4.130;2023-06-26T12:46:08;24.10;99.90
49765;DHT22;35657;51.204;-4.130;2023-06-26T12:48:42;24.30;99.90
49765;DHT22;35657;51.204;-4.130;2023-06-26T12:51:16;24.50;99.90
49765;DHT22;35657;51.204;-4.130;2023-06-26T12:53:42;24.50;99.90
49765;DHT22;35657;51.204;-4.130;2023-06-26T12:56:08;24.40;99.90
49765;DHT22;35657;51.204;-4.130;2023-06-26T12:58:35;24.20;99.90
49765;DHT22;35657;51.204;-4.130;2023-06-26T13:01:06;24.00;99.90
49765;DHT22;35657;51.204;-4.130;2023-06-26T13:03:43;23.90;99.90
49765;DHT22;35657;51.204;-4.130;2023-06-26T13:06:08;23.60;99.90
49765;DHT22;35657;51.204;-4.130;2023-06-26T13:08:34;23.80;99.90
49765;DHT22;35657;51.204;-4.130;2023-06-26T13:11:00;23.80;99.90
49765;DHT22;35657;51.204;-4.130;2023-06-26T13:13:26;23.90;99.90
49765;DHT22;35657;51.204;-4.130;2023-06-26T13:15:52;23.70;99.90
49765;DHT22;35657;51.204;-4.130;2023-06-26T13:18:18;22.80;99.90
49765;DHT22;35657;51.204;-4.130;2023-06-26T13:20:43;22.70;99.90
49765;DHT22;35657;51.204;-4.130;2023-06-26T13:23:09;22.70;99.90
49765;DHT22;35657;51.204;-4.130;2023-06-26T13:25:35;23.10;99.90
49765;DHT22;35657;51.204;-4.130;2023-06-26T13:28:00;22.90;99.90
49765;DHT22;35657;51.204;-4.130;2023-06-26T13:30:26;22.70;99.90
49765;DHT22;35657;51.204;-4.130;2023-06-26T13:32:52;22.60;99.90
49765;DHT22;35657;51.204;-4.130;2023-06-26T13:35:18;22.20;99.90
49765;DHT22;35657;51.204;-4.130;2023-06-26T13:37:43;22.30;99.90
49765;DHT22;35657;51.204;-4.130;2023-06-26T13:40:09;22.20;99.90
49765;DHT22;35657;51.204;-4.130;2023-06-26T13:42:36;22.40;99.90
49765;DHT22;35657;51.204;-4.130;2023-06-26T13:45:03;22.10;99.90
49765;DHT22;35657;51.204;-4.130;2023-06-26T13:47:29;22.50;99.90
49765;DHT22;35657;51.204;-4.130;2023-06-26T13:49:54;22.90;99.90
49765;DHT22;35657;51.204;-4.130;2023-06-26T13:52:20;22.60;99.90
49765;DHT22;35657;51.204;-4.130;2023-06-26T13:54:46;22.60;99.90
49765;DHT22;35657;51.204;-4.130;2023-06-26T13:57:12;22.60;99.90
49765;DHT22;35657;51.204;-4.130;2023-06-26T13:59:38;22.70;99.90
49765;DHT22;35657;51.204;-4.130;2023-06-26T14:02:08;22.80;99.90
49765;DHT22;35657;51.204;-4.130;2023-06-26T14:04:34;23.00;99.90
49765;DHT22;35657;51.204;-4.130;2023-06-26T14:06:59;23.40;99.90
49765;DHT22;35657;51.204;-4.130;2023-06-26T14:09:25;23.20;99.90
49765;DHT22;35657;51.204;-4.130;2023-06-26T14:11:51;22.70;99.90
49765;DHT22;35657;51.204;-4.130;2023-06-26T14:14:17;22.80;99.90
49765;DHT22;35657;51.204;-4.130;2023-06-26T14:16:42;22.80;99.90
49765;DHT22;35657;51.204;-4.130;2023-06-26T14:19:08;22.80;99.90
49765;DHT22;35657;51.204;-4.130;2023-06-26T14:21:41;22.90;99.90
49765;DHT22;35657;51.204;-4.130;2023-06-26T14:24:07;23.20;99.90
49765;DHT22;35657;51.204;-4.130;2023-06-26T14:26:32;23.20;99.90
49765;DHT22;35657;51.204;-4.130;2023-06-26T14:29:00;23.20;99.90
49765;DHT22;35657;51.204;-4.130;2023-06-26T14:31:26;23.10;99.90
49765;DHT22;35657;51.204;-4.130;2023-06-26T14:33:52;23.10;99.90
49765;DHT22;35657;51.204;-4.130;2023-06-26T14:36:17;22.60;99.90
49765;DHT22;35657;51.204;-4.130;2023-06-26T14:38:44;22.80;99.90
49765;DHT22;35657;51.204;-4.130;2023-06-26T14:41:10;23.10;99.90
49765;DHT22;35657;51.204;-4.130;2023-06-26T14:43:36;22.90;99.90
49765;DHT22;35657;51.204;-4.130;2023-06-26T14:46:02;23.00;99.90
49765;DHT22;35657;51.204;-4.130;2023-06-26T14:48:27;22.80;99.90
49765;DHT22;35657;51.204;-4.130;2023-06-26T14:50:53;22.50;99.90
49765;DHT22;35657;51.204;-4.130;2023-06-26T14:53:19;22.30;99.90
49765;DHT22;35657;51.204;-4.130;2023-06-26T14:55:44;22.60;99.90
49765;DHT22;35657;51.204;-4.130;2023-06-26T14:58:10;22.60;99.90
49765;DHT22;35657;51.204;-4.130;2023-06-26T15:00:36;22.20;99.90
49765;DHT22;35657;51.204;-4.130;2023-06-26T15:03:01;22.20;99.90
49765;DHT22;35657;51.204;-4.130;2023-06-26T15:05:27;22.60;99.90
49765;DHT22;35657;51.204;-4.130;2023-06-26T15:07:53;22.80;99.90
49765;DHT22;35657;51.204;-4.130;2023-06-26T15:10:18;23.10;99.90
49765;DHT22;35657;51.204;-4.130;2023-06-26T15:12:45;23.00;99.90
49765;DHT22;35657;51.204;-4.130;2023-06-26T15:15:10;23.20;99.90
49765;DHT22;35657;51.204;-4.130;2023-06-26T15:17:37;23.20;99.90
49765;DHT22;35657;51.204;-4.130;2023-06-26T15:20:02;23.40;99.90
49765;DHT22;35657;51.204;-4.130;2023-06-26T15:22:28;23.10;99.90
49765;DHT22;35657;51.204;-4.130;2023-06-26T15:24:54;22.70;99.90
49765;DHT22;35657;51.204;-4.130;2023-06-26T15:27:20;22.00;99.90
49765;DHT22;35657;51.204;-4.130;2023-06-26T15:29:46;22.10;99.90
49765;DHT22;35657;51.204;-4.130;2023-06-26T15:32:11;22.50;99.90
49765;DHT22;35657;51.204;-4.130;2023-06-26T15:34:37;22.20;99.90